sensor_id;sensor_type;location;lat;lon;timestamp;pressure;altitude;pressure_sealevel;temperature;humidity
26489;BME280;14169;43.684;10.484;2023-03-03T00:01:26;101465.81;;;9.59;100.00
26489;BME280;14169;43.684;10.484;2023-03-03T00:03:52;101463.19;;;9.59;100.00
26489;BME280;14169;43.684;10.484;2023-03-03T00:06:18;101466.63;;;9.61;100.00
26489;BME280;14169;43.684;10.484;2023-03-03T00:08:44;101475.31;;;9.62;100.00
26489;BME280;14169;43.684;10.484;2023-03-03T00:11:10;101471.00;;;9.59;100.00
26489;BME280;14169;43.684;10.484;2023-03-03T00:13:47;101473.63;;;9.58;100.00
26489;BME280;14169;43.684;10.484;2023-03-03T00:18:43;101463.31;;;9.53;100.00
26489;BME280;14169;43.684;10.484;2023-03-03T00:23:54;101466.88;;;9.48;100.00
26489;BME280;14169;43.684;10.484;2023-03-03T00:26:32;101472.94;;;9.47;100.00
26489;BME280;14169;43.684;10.484;2023-03-03T00:29:01;101485.06;;;9.46;100.00
26489;BME280;14169;43.684;10.484;2023-03-03T00:31:32;101472.09;;;9.45;100.00
26489;BME280;14169;43.684;10.484;2023-03-03T00:34:19;101476.44;;;9.44;100.00
26489;BME280;14169;43.684;10.484;2023-03-03T00:36:52;101481.66;;;9.43;100.00
26489;BME280;14169;43.684;10.484;2023-03-03T00:41:52;101479.09;;;9.41;100.00
26489;BME280;14169;43.684;10.484;2023-03-03T00:44:43;101487.75;;;9.40;100.00
26489;BME280;14169;43.684;10.484;2023-03-03T00:47:28;101484.28;;;9.41;100.00
26489;BME280;14169;43.684;10.484;2023-03-03T00:52:40;101485.22;;;9.37;100.00
26489;BME280;14169;43.684;10.484;2023-03-03T00:55:10;101480.91;;;9.35;100.00
26489;BME280;14169;43.684;10.484;2023-03-03T00:57:35;101478.38;;;9.32;100.00
26489;BME280;14169;43.684;10.484;2023-03-03T01:00:01;101479.28;;;9.29;100.00
26489;BME280;14169;43.684;10.484;2023-03-03T01:02:26;101477.53;;;9.28;100.00
26489;BME280;14169;43.684;10.484;2023-03-03T01:04:52;101472.44;;;9.22;100.00
26489;BME280;14169;43.684;10.484;2023-03-03T01:07:20;101469.06;;;9.17;100.00
26489;BME280;14169;43.684;10.484;2023-03-03T01:09:46;101476.91;;;9.12;100.00
26489;BME280;14169;43.684;10.484;2023-03-03T01:12:11;101482.19;;;9.06;100.00
26489;BME280;14169;43.684;10.484;2023-03-03T01:14:37;101486.59;;;8.98;100.00
26489;BME280;14169;43.684;10.484;2023-03-03T01:17:03;101504.09;;;8.86;100.00
26489;BME280;14169;43.684;10.484;2023-03-03T01:19:31;101500.78;;;8.73;100.00
26489;BME280;14169;43.684;10.484;2023-03-03T01:21:57;101497.44;;;8.64;100.00
26489;BME280;14169;43.684;10.484;2023-03-03T01:24:23;101500.06;;;8.61;100.00
26489;BME280;14169;43.684;10.484;2023-03-03T01:26:48;101487.06;;;8.64;100.00
26489;BME280;14169;43.684;10.484;2023-03-03T01:29:13;101490.44;;;8.72;100.00
26489;BME280;14169;43.684;10.484;2023-03-03T01:31:39;101485.13;;;8.79;100.00
26489;BME280;14169;43.684;10.484;2023-03-03T01:34:05;101482.44;;;8.87;100.00
26489;BME280;14169;43.684;10.484;2023-03-03T01:36:31;101479.72;;;8.96;100.00
26489;BME280;14169;43.684;10.484;2023-03-03T01:38:58;101479.66;;;9.03;100.00
26489;BME280;14169;43.684;10.484;2023-03-03T01:41:26;101479.53;;;9.11;100.00
26489;BME280;14169;43.684;10.484;2023-03-03T01:43:54;101469.84;;;9.20;100.00
26489;BME280;14169;43.684;10.484;2023-03-03T01:48:49;101473.13;;;9.35;100.00
26489;BME280;14169;43.684;10.484;2023-03-03T01:51:28;101475.81;;;9.29;100.00
26489;BME280;14169;43.684;10.484;2023-03-03T01:53:56;101464.72;;;9.17;100.00
26489;BME280;14169;43.684;10.484;2023-03-03T01:56:24;101460.47;;;9.10;100.00
26489;BME280;14169;43.684;10.484;2023-03-03T01:59:10;101460.47;;;9.10;100.00
26489;BME280;14169;43.684;10.484;2023-03-03T02:01:38;101458.72;;;9.14;100.00
26489;BME280;14169;43.684;10.484;2023-03-03T02:04:03;101450.00;;;9.18;100.00
26489;BME280;14169;43.684;10.484;2023-03-03T02:06:35;101456.84;;;9.23;100.00
26489;BME280;14169;43.684;10.484;2023-03-03T02:11:50;101458.44;;;9.31;100.00
26489;BME280;14169;43.684;10.484;2023-03-03T02:14:16;101450.59;;;9.35;100.00
26489;BME280;14169;43.684;10.484;2023-03-03T02:16:42;101447.97;;;9.35;100.00
26489;BME280;14169;43.684;10.484;2023-03-03T02:19:37;101444.50;;;9.35;100.00
26489;BME280;14169;43.684;10.484;2023-03-03T02:22:05;101441.88;;;9.36;100.00
26489;BME280;14169;43.684;10.484;2023-03-03T02:24:50;101442.78;;;9.35;100.00
26489;BME280;14169;43.684;10.484;2023-03-03T02:27:17;101434.97;;;9.35;100.00
26489;BME280;14169;43.684;10.484;2023-03-03T02:29:42;101430.59;;;9.39;100.00
26489;BME280;14169;43.684;10.484;2023-03-03T02:32:08;101427.94;;;9.42;100.00
26489;BME280;14169;43.684;10.484;2023-03-03T02:34:47;101431.38;;;9.44;100.00
26489;BME280;14169;43.684;10.484;2023-03-03T02:37:12;101425.25;;;9.46;100.00
26489;BME280;14169;43.684;10.484;2023-03-03T02:39:38;101431.28;;;9.50;100.00
26489;BME280;14169;43.684;10.484;2023-03-03T02:42:22;101431.28;;;9.50;100.00
26489;BME280;14169;43.684;10.484;2023-03-03T02:44:50;101432.94;;;9.52;100.00
26489;BME280;14169;43.684;10.484;2023-03-03T02:47:16;101432.94;;;9.54;100.00
26489;BME280;14169;43.684;10.484;2023-03-03T02:49:41;101437.22;;;9.56;100.00
26489;BME280;14169;43.684;10.484;2023-03-03T02:52:09;101435.50;;;9.57;100.00
26489;BME280;14169;43.684;10.484;2023-03-03T02:54:36;101436.31;;;9.59;100.00
26489;BME280;14169;43.684;10.484;2023-03-03T02:57:03;101432.84;;;9.60;100.00
26489;BME280;14169;43.684;10.484;2023-03-03T02:59:28;101435.41;;;9.61;100.00
26489;BME280;14169;43.684;10.484;2023-03-03T03:01:54;101437.13;;;9.62;100.00
26489;BME280;14169;43.684;10.484;2023-03-03T03:04:23;101438.06;;;9.60;100.00
26489;BME280;14169;43.684;10.484;2023-03-03T03:06:48;101439.88;;;9.53;100.00
26489;BME280;14169;43.684;10.484;2023-03-03T03:09:16;101436.53;;;9.47;100.00
26489;BME280;14169;43.684;10.484;2023-03-03T03:11:42;101424.44;;;9.43;100.00
26489;BME280;14169;43.684;10.484;2023-03-03T03:14:09;101425.34;;;9.40;100.00
26489;BME280;14169;43.684;10.484;2023-03-03T03:16:35;101426.25;;;9.39;100.00
26489;BME280;14169;43.684;10.484;2023-03-03T03:19:02;101421.06;;;9.39;100.00
26489;BME280;14169;43.684;10.484;2023-03-03T03:21:29;101421.84;;;9.43;100.00
26489;BME280;14169;43.684;10.484;2023-03-03T03:23:54;101426.19;;;9.44;100.00
26489;BME280;14169;43.684;10.484;2023-03-03T03:26:20;101424.41;;;9.46;100.00
26489;BME280;14169;43.684;10.484;2023-03-03T03:28:46;101418.34;;;9.45;100.00
26489;BME280;14169;43.684;10.484;2023-03-03T03:31:13;101420.06;;;9.46;100.00
26489;BME280;14169;43.684;10.484;2023-03-03T03:33:38;101424.38;;;9.47;100.00
26489;BME280;14169;43.684;10.484;2023-03-03T03:36:04;101424.38;;;9.47;100.00
26489;BME280;14169;43.684;10.484;2023-03-03T03:38:31;101420.97;;;9.44;100.00
26489;BME280;14169;43.684;10.484;2023-03-03T03:40:56;101426.16;;;9.45;100.00
26489;BME280;14169;43.684;10.484;2023-03-03T03:43:22;101430.53;;;9.43;100.00
26489;BME280;14169;43.684;10.484;2023-03-03T03:45:48;101427.09;;;9.41;100.00
26489;BME280;14169;43.684;10.484;2023-03-03T03:48:13;101425.34;;;9.40;100.00
26489;BME280;14169;43.684;10.484;2023-03-03T03:50:40;101430.56;;;9.40;100.00
26489;BME280;14169;43.684;10.484;2023-03-03T03:53:06;101424.50;;;9.38;100.00
26489;BME280;14169;43.684;10.484;2023-03-03T03:55:32;101426.22;;;9.41;100.00
26489;BME280;14169;43.684;10.484;2023-03-03T03:57:57;101420.97;;;9.42;100.00
26489;BME280;14169;43.684;10.484;2023-03-03T04:00:24;101424.41;;;9.44;100.00
26489;BME280;14169;43.684;10.484;2023-03-03T04:02:50;101425.28;;;9.45;100.00
26489;BME280;14169;43.684;10.484;2023-03-03T04:05:16;101432.19;;;9.47;100.00
26489;BME280;14169;43.684;10.484;2023-03-03T04:07:41;101430.44;;;9.46;100.00
26489;BME280;14169;43.684;10.484;2023-03-03T04:10:07;101428.78;;;9.44;100.00
26489;BME280;14169;43.684;10.484;2023-03-03T04:12:33;101427.13;;;9.40;100.00
26489;BME280;14169;43.684;10.484;2023-03-03T04:17:29;101430.63;;;9.37;100.00
26489;BME280;14169;43.684;10.484;2023-03-03T04:19:55;101423.69;;;9.36;100.00
26489;BME280;14169;43.684;10.484;2023-03-03T04:22:20;101424.53;;;9.37;100.00
26489;BME280;14169;43.684;10.484;2023-03-03T04:24:46;101429.78;;;9.35;100.00
26489;BME280;14169;43.684;10.484;2023-03-03T04:27:13;101422.84;;;9.36;100.00
26489;BME280;14169;43.684;10.484;2023-03-03T04:29:39;101429.78;;;9.35;100.00
26489;BME280;14169;43.684;10.484;2023-03-03T04:32:05;101423.69;;;9.36;100.00
26489;BME280;14169;43.684;10.484;2023-03-03T04:34:30;101428.88;;;9.36;100.00
26489;BME280;14169;43.684;10.484;2023-03-03T04:36:56;101433.22;;;9.37;100.00
26489;BME280;14169;43.684;10.484;2023-03-03T04:39:21;101424.50;;;9.38;100.00
26489;BME280;14169;43.684;10.484;2023-03-03T04:41:47;101425.41;;;9.37;100.00
26489;BME280;14169;43.684;10.484;2023-03-03T04:44:12;101429.72;;;9.38;100.00
26489;BME280;14169;43.684;10.484;2023-03-03T04:46:37;101427.97;;;9.39;100.00
26489;BME280;14169;43.684;10.484;2023-03-03T04:49:03;101427.94;;;9.40;100.00
26489;BME280;14169;43.684;10.484;2023-03-03T04:51:32;101426.22;;;9.41;100.00
26489;BME280;14169;43.684;10.484;2023-03-03T04:53:57;101423.63;;;9.41;100.00
26489;BME280;14169;43.684;10.484;2023-03-03T04:56:22;101426.22;;;9.41;100.00
26489;BME280;14169;43.684;10.484;2023-03-03T04:58:48;101419.28;;;9.41;100.00
26489;BME280;14169;43.684;10.484;2023-03-03T05:01:13;101426.19;;;9.42;100.00
26489;BME280;14169;43.684;10.484;2023-03-03T05:03:40;101423.59;;;9.44;100.00
26489;BME280;14169;43.684;10.484;2023-03-03T05:06:06;101418.38;;;9.42;100.00
26489;BME280;14169;43.684;10.484;2023-03-03T05:08:31;101421.00;;;9.41;100.00
26489;BME280;14169;43.684;10.484;2023-03-03T05:10:57;101412.38;;;9.39;100.00
26489;BME280;14169;43.684;10.484;2023-03-03T05:13:24;101413.28;;;9.36;100.00
26489;BME280;14169;43.684;10.484;2023-03-03T05:15:52;101411.63;;;9.34;100.00
26489;BME280;14169;43.684;10.484;2023-03-03T05:18:19;101409.91;;;9.31;100.00
26489;BME280;14169;43.684;10.484;2023-03-03T05:20:44;101415.97;;;9.32;100.00
26489;BME280;14169;43.684;10.484;2023-03-03T05:23:10;101407.31;;;9.31;100.00
26489;BME280;14169;43.684;10.484;2023-03-03T05:25:35;101415.03;;;9.34;100.00
26489;BME280;14169;43.684;10.484;2023-03-03T05:28:01;101413.31;;;9.35;100.00
26489;BME280;14169;43.684;10.484;2023-03-03T05:30:26;101414.97;;;9.39;100.00
26489;BME280;14169;43.684;10.484;2023-03-03T05:32:51;101414.13;;;9.38;100.00
26489;BME280;14169;43.684;10.484;2023-03-03T05:35:17;101416.72;;;9.40;100.00
26489;BME280;14169;43.684;10.484;2023-03-03T05:37:44;101422.72;;;9.43;100.00
26489;BME280;14169;43.684;10.484;2023-03-03T05:40:13;101417.47;;;9.45;100.00
26489;BME280;14169;43.684;10.484;2023-03-03T05:42:39;101420.94;;;9.45;100.00
26489;BME280;14169;43.684;10.484;2023-03-03T05:45:05;101419.22;;;9.44;100.00
26489;BME280;14169;43.684;10.484;2023-03-03T05:47:30;101418.38;;;9.44;100.00
26489;BME280;14169;43.684;10.484;2023-03-03T05:49:56;101416.63;;;9.44;100.00
26489;BME280;14169;43.684;10.484;2023-03-03T05:52:21;101423.56;;;9.45;100.00
26489;BME280;14169;43.684;10.484;2023-03-03T05:54:48;101419.22;;;9.44;100.00
26489;BME280;14169;43.684;10.484;2023-03-03T05:57:14;101418.38;;;9.42;100.00
26489;BME280;14169;43.684;10.484;2023-03-03T05:59:40;101418.38;;;9.44;100.00
26489;BME280;14169;43.684;10.484;2023-03-03T06:02:05;101418.34;;;9.45;100.00
26489;BME280;14169;43.684;10.484;2023-03-03T06:04:30;101421.81;;;9.46;100.00
26489;BME280;14169;43.684;10.484;2023-03-03T06:06:56;101423.47;;;9.48;100.00
26489;BME280;14169;43.684;10.484;2023-03-03T06:09:21;101427.84;;;9.48;100.00
26489;BME280;14169;43.684;10.484;2023-03-03T06:11:47;101424.41;;;9.46;100.00
26489;BME280;14169;43.684;10.484;2023-03-03T06:14:12;101429.69;;;9.41;100.00
26489;BME280;14169;43.684;10.484;2023-03-03T06:16:37;101434.97;;;9.35;100.00
26489;BME280;14169;43.684;10.484;2023-03-03T06:19:03;101432.41;;;9.34;100.00
26489;BME280;14169;43.684;10.484;2023-03-03T06:21:29;101427.22;;;9.32;100.00
26489;BME280;14169;43.684;10.484;2023-03-03T06:23:54;101440.28;;;9.29;100.00
26489;BME280;14169;43.684;10.484;2023-03-03T06:26:20;101436.78;;;9.30;100.00
26489;BME280;14169;43.684;10.484;2023-03-03T06:28:45;101446.34;;;9.28;100.00
26489;BME280;14169;43.684;10.484;2023-03-03T06:31:11;101441.19;;;9.25;100.00
26489;BME280;14169;43.684;10.484;2023-03-03T06:33:36;101449.88;;;9.24;100.00
26489;BME280;14169;43.684;10.484;2023-03-03T06:36:02;101450.78;;;9.21;100.00
26489;BME280;14169;43.684;10.484;2023-03-03T06:38:28;101451.63;;;9.22;100.00
26489;BME280;14169;43.684;10.484;2023-03-03T06:40:53;101453.38;;;9.23;100.00
26489;BME280;14169;43.684;10.484;2023-03-03T06:43:19;101455.94;;;9.24;100.00
26489;BME280;14169;43.684;10.484;2023-03-03T06:45:44;101455.97;;;9.23;100.00
26489;BME280;14169;43.684;10.484;2023-03-03T06:48:10;101459.44;;;9.23;100.00
26489;BME280;14169;43.684;10.484;2023-03-03T06:50:36;101463.72;;;9.24;100.00
26489;BME280;14169;43.684;10.484;2023-03-03T06:55:32;101471.44;;;9.31;100.00
26489;BME280;14169;43.684;10.484;2023-03-03T06:57:58;101471.38;;;9.35;100.00
26489;BME280;14169;43.684;10.484;2023-03-03T07:00:26;101479.09;;;9.41;100.00
26489;BME280;14169;43.684;10.484;2023-03-03T07:03:07;101481.63;;;9.46;100.00
26489;BME280;14169;43.684;10.484;2023-03-03T07:05:35;101479.88;;;9.48;100.00
26489;BME280;14169;43.684;10.484;2023-03-03T07:08:00;101477.13;;;9.55;100.00
26489;BME280;14169;43.684;10.484;2023-03-03T07:10:28;101484.84;;;9.61;100.00
26489;BME280;14169;43.684;10.484;2023-03-03T07:12:57;101476.94;;;9.67;100.00
26489;BME280;14169;43.684;10.484;2023-03-03T07:15:33;101479.44;;;9.73;100.00
26489;BME280;14169;43.684;10.484;2023-03-03T07:17:59;101480.13;;;9.83;100.00
26489;BME280;14169;43.684;10.484;2023-03-03T07:20:35;101485.25;;;9.89;100.00
26489;BME280;14169;43.684;10.484;2023-03-03T07:23:23;101484.28;;;9.94;100.00
26489;BME280;14169;43.684;10.484;2023-03-03T07:25:49;101484.16;;;10.00;100.00
26489;BME280;14169;43.684;10.484;2023-03-03T07:28:23;101488.41;;;10.07;100.00
26489;BME280;14169;43.684;10.484;2023-03-03T07:30:50;101489.13;;;10.14;100.00
26489;BME280;14169;43.684;10.484;2023-03-03T07:33:22;101489.91;;;10.19;100.00
26489;BME280;14169;43.684;10.484;2023-03-03T07:35:50;101481.97;;;10.25;100.00
26489;BME280;14169;43.684;10.484;2023-03-03T07:38:23;101495.75;;;10.32;100.00
26489;BME280;14169;43.684;10.484;2023-03-03T07:40:54;101489.59;;;10.36;100.00
26489;BME280;14169;43.684;10.484;2023-03-03T07:43:36;101484.06;;;10.52;100.00
26489;BME280;14169;43.684;10.484;2023-03-03T07:46:30;101480.34;;;10.65;100.00
26489;BME280;14169;43.684;10.484;2023-03-03T07:48:59;101483.56;;;10.78;100.00
26489;BME280;14169;43.684;10.484;2023-03-03T07:51:45;101485.78;;;10.96;100.00
26489;BME280;14169;43.684;10.484;2023-03-03T07:56:35;101476.38;;;11.64;100.00
26489;BME280;14169;43.684;10.484;2023-03-03T07:59:15;101485.94;;;12.00;100.00
26489;BME280;14169;43.684;10.484;2023-03-03T08:01:43;101486.88;;;12.30;100.00
26489;BME280;14169;43.684;10.484;2023-03-03T08:04:22;101484.50;;;12.21;100.00
26489;BME280;14169;43.684;10.484;2023-03-03T08:06:56;101483.75;;;12.16;100.00
26489;BME280;14169;43.684;10.484;2023-03-03T08:09:28;101484.56;;;12.19;100.00
26489;BME280;14169;43.684;10.484;2023-03-03T08:11:56;101478.56;;;12.46;100.00
26489;BME280;14169;43.684;10.484;2023-03-03T08:14:27;101478.00;;;12.66;100.00
26489;BME280;14169;43.684;10.484;2023-03-03T08:16:54;101481.91;;;12.82;100.00
26489;BME280;14169;43.684;10.484;2023-03-03T08:19:20;101488.69;;;12.89;100.00
26489;BME280;14169;43.684;10.484;2023-03-03T08:21:45;101482.47;;;12.93;100.00
26489;BME280;14169;43.684;10.484;2023-03-03T08:24:11;101478.25;;;13.15;100.00
26489;BME280;14169;43.684;10.484;2023-03-03T08:26:36;101477.72;;;13.35;100.00
26489;BME280;14169;43.684;10.484;2023-03-03T08:29:01;101470.91;;;13.56;100.00
26489;BME280;14169;43.684;10.484;2023-03-03T08:31:27;101481.84;;;13.68;100.00
26489;BME280;14169;43.684;10.484;2023-03-03T08:33:53;101471.13;;;13.76;100.00
26489;BME280;14169;43.684;10.484;2023-03-03T08:36:19;101471.69;;;13.59;100.00
26489;BME280;14169;43.684;10.484;2023-03-03T08:38:44;101474.03;;;13.40;100.00
26489;BME280;14169;43.684;10.484;2023-03-03T08:41:10;101477.16;;;13.24;100.00
26489;BME280;14169;43.684;10.484;2023-03-03T08:43:36;101476.66;;;13.11;100.00
26489;BME280;14169;43.684;10.484;2023-03-03T08:46:03;101468.16;;;13.05;100.00
26489;BME280;14169;43.684;10.484;2023-03-03T08:48:29;101473.31;;;13.06;100.00
26489;BME280;14169;43.684;10.484;2023-03-03T08:50:56;101483.72;;;13.08;100.00
26489;BME280;14169;43.684;10.484;2023-03-03T08:53:22;101477.44;;;13.13;100.00
26489;BME280;14169;43.684;10.484;2023-03-03T08:55:49;101480.69;;;13.51;100.00
26489;BME280;14169;43.684;10.484;2023-03-03T08:58:16;101473.13;;;13.68;100.00
26489;BME280;14169;43.684;10.484;2023-03-03T09:00:42;101477.88;;;13.83;100.00
26489;BME280;14169;43.684;10.484;2023-03-03T09:03:08;101478.59;;;14.12;100.00
26489;BME280;14169;43.684;10.484;2023-03-03T09:05:36;101478.09;;;14.26;100.00
26489;BME280;14169;43.684;10.484;2023-03-03T09:08:03;101480.19;;;14.43;100.00
26489;BME280;14169;43.684;10.484;2023-03-03T09:10:29;101475.41;;;14.29;100.00
26489;BME280;14169;43.684;10.484;2023-03-03T09:13:01;101476.66;;;14.17;100.00
26489;BME280;14169;43.684;10.484;2023-03-03T09:15:33;101473.59;;;14.29;100.00
26489;BME280;14169;43.684;10.484;2023-03-03T09:20:40;101472.22;;;14.69;100.00
26489;BME280;14169;43.684;10.484;2023-03-03T09:25:46;101468.94;;;15.08;100.00
26489;BME280;14169;43.684;10.484;2023-03-03T09:28:31;101469.53;;;15.15;100.00
26489;BME280;14169;43.684;10.484;2023-03-03T09:31:01;101471.78;;;15.47;100.00
26489;BME280;14169;43.684;10.484;2023-03-03T09:33:46;101472.69;;;15.68;100.00
26489;BME280;14169;43.684;10.484;2023-03-03T09:38:46;101460.22;;;15.30;100.00
26489;BME280;14169;43.684;10.484;2023-03-03T09:41:42;101475.28;;;14.80;100.00
26489;BME280;14169;43.684;10.484;2023-03-03T09:44:52;101476.31;;;14.53;100.00
26489;BME280;14169;43.684;10.484;2023-03-03T09:50:08;101489.16;;;14.36;100.00
26489;BME280;14169;43.684;10.484;2023-03-03T10:01:01;101494.50;;;14.32;100.00
26489;BME280;14169;43.684;10.484;2023-03-03T10:06:36;101502.03;;;14.42;100.00
26489;BME280;14169;43.684;10.484;2023-03-03T10:12:12;101498.38;;;14.70;100.00
26489;BME280;14169;43.684;10.484;2023-03-03T10:14:57;101503.59;;;14.95;100.00
26489;BME280;14169;43.684;10.484;2023-03-03T10:25:53;101494.09;;;15.59;100.00
26489;BME280;14169;43.684;10.484;2023-03-03T10:44:49;101489.00;;;16.36;100.00
26489;BME280;14169;43.684;10.484;2023-03-03T11:00:44;101495.25;;;17.48;100.00
26489;BME280;14169;43.684;10.484;2023-03-03T11:09:39;101481.50;;;17.23;98.89
26489;BME280;14169;43.684;10.484;2023-03-03T11:15:12;101476.72;;;17.50;97.63
26489;BME280;14169;43.684;10.484;2023-03-03T11:18:11;101486.00;;;17.40;96.74
26489;BME280;14169;43.684;10.484;2023-03-03T11:23:36;101470.34;;;17.00;95.03
26489;BME280;14169;43.684;10.484;2023-03-03T11:26:14;101478.59;;;16.73;96.17
26489;BME280;14169;43.684;10.484;2023-03-03T11:29:32;101472.66;;;16.50;95.48
26489;BME280;14169;43.684;10.484;2023-03-03T11:35:06;101470.16;;;16.47;96.75
26489;BME280;14169;43.684;10.484;2023-03-03T11:37:41;101462.22;;;16.48;96.39
26489;BME280;14169;43.684;10.484;2023-03-03T11:40:18;101464.84;;;16.48;95.61
26489;BME280;14169;43.684;10.484;2023-03-03T11:43:01;101465.47;;;16.53;95.42
26489;BME280;14169;43.684;10.484;2023-03-03T11:53:49;101450.94;;;17.02;93.32
26489;BME280;14169;43.684;10.484;2023-03-03T12:04:19;101442.16;;;18.24;86.32
26489;BME280;14169;43.684;10.484;2023-03-03T12:13:04;101434.69;;;18.32;84.91
26489;BME280;14169;43.684;10.484;2023-03-03T12:29:35;101404.53;;;19.77;76.52
26489;BME280;14169;43.684;10.484;2023-03-03T12:32:15;101402.84;;;19.46;75.69
26489;BME280;14169;43.684;10.484;2023-03-03T12:35:17;101391.09;;;19.05;78.00
26489;BME280;14169;43.684;10.484;2023-03-03T12:40:17;101390.13;;;19.96;74.90
26489;BME280;14169;43.684;10.484;2023-03-03T12:53:51;101377.84;;;20.66;66.12
26489;BME280;14169;43.684;10.484;2023-03-03T12:56:33;101370.69;;;20.94;67.15
26489;BME280;14169;43.684;10.484;2023-03-03T12:59:04;101361.31;;;21.30;64.21
26489;BME280;14169;43.684;10.484;2023-03-03T13:04:33;101373.63;;;20.90;65.00
26489;BME280;14169;43.684;10.484;2023-03-03T13:07:12;101354.59;;;21.24;62.25
26489;BME280;14169;43.684;10.484;2023-03-03T13:12:43;101354.59;;;21.76;61.06
26489;BME280;14169;43.684;10.484;2023-03-03T13:26:44;101350.53;;;22.46;54.06
26489;BME280;14169;43.684;10.484;2023-03-03T13:29:19;101347.56;;;22.50;51.50
26489;BME280;14169;43.684;10.484;2023-03-03T13:31:54;101337.66;;;23.01;52.31
26489;BME280;14169;43.684;10.484;2023-03-03T13:37:29;101345.63;;;22.65;50.83
26489;BME280;14169;43.684;10.484;2023-03-03T13:42:39;101330.66;;;22.88;49.74
26489;BME280;14169;43.684;10.484;2023-03-03T13:45:48;101339.31;;;22.79;51.25
26489;BME280;14169;43.684;10.484;2023-03-03T13:51:08;101330.91;;;23.08;49.42
26489;BME280;14169;43.684;10.484;2023-03-03T13:53:57;101328.97;;;23.10;49.28
26489;BME280;14169;43.684;10.484;2023-03-03T13:59:28;101324.72;;;23.66;45.43
26489;BME280;14169;43.684;10.484;2023-03-03T14:04:53;101334.88;;;23.37;45.88
26489;BME280;14169;43.684;10.484;2023-03-03T14:07:29;101323.69;;;23.45;44.43
26489;BME280;14169;43.684;10.484;2023-03-03T14:15:27;101316.03;;;24.19;43.54
26489;BME280;14169;43.684;10.484;2023-03-03T14:20:37;101318.47;;;24.22;43.51
26489;BME280;14169;43.684;10.484;2023-03-03T14:23:12;101314.34;;;23.85;42.29
26489;BME280;14169;43.684;10.484;2023-03-03T14:26:06;101318.13;;;24.05;41.70
26489;BME280;14169;43.684;10.484;2023-03-03T14:28:43;101309.88;;;24.08;41.76
26489;BME280;14169;43.684;10.484;2023-03-03T14:31:25;101316.38;;;23.82;42.75
26489;BME280;14169;43.684;10.484;2023-03-03T14:34:01;101313.63;;;23.83;42.73
26489;BME280;14169;43.684;10.484;2023-03-03T14:36:32;101313.00;;;23.80;43.04
26489;BME280;14169;43.684;10.484;2023-03-03T14:39:00;101316.75;;;23.77;43.05
26489;BME280;14169;43.684;10.484;2023-03-03T14:41:38;101306.84;;;24.01;41.60
26489;BME280;14169;43.684;10.484;2023-03-03T14:44:29;101310.59;;;24.54;39.70
26489;BME280;14169;43.684;10.484;2023-03-03T14:49:34;101308.06;;;25.27;38.79
26489;BME280;14169;43.684;10.484;2023-03-03T14:52:24;101309.88;;;25.47;37.16
26489;BME280;14169;43.684;10.484;2023-03-03T14:54:55;101303.75;;;25.15;37.82
26489;BME280;14169;43.684;10.484;2023-03-03T14:57:41;101302.94;;;24.61;37.35
26489;BME280;14169;43.684;10.484;2023-03-03T15:02:43;101304.06;;;24.14;39.43
26489;BME280;14169;43.684;10.484;2023-03-03T15:07:47;101300.53;;;24.13;40.32
26489;BME280;14169;43.684;10.484;2023-03-03T15:10:34;101306.72;;;23.92;40.77
26489;BME280;14169;43.684;10.484;2023-03-03T15:18:25;101294.75;;;24.08;40.87
26489;BME280;14169;43.684;10.484;2023-03-03T15:21:12;101305.03;;;22.87;42.91
26489;BME280;14169;43.684;10.484;2023-03-03T16:02:54;101316.69;;;18.51;69.16
26489;BME280;14169;43.684;10.484;2023-03-03T16:05:33;101309.56;;;18.21;70.97
26489;BME280;14169;43.684;10.484;2023-03-03T16:18:36;101343.22;;;18.33;65.95
26489;BME280;14169;43.684;10.484;2023-03-03T16:23:51;101353.78;;;17.32;71.88
26489;BME280;14169;43.684;10.484;2023-03-03T16:31:50;101355.47;;;16.43;78.61
26489;BME280;14169;43.684;10.484;2023-03-03T16:34:54;101366.47;;;16.32;80.72
26489;BME280;14169;43.684;10.484;2023-03-03T16:37:28;101363.44;;;16.41;79.26
26489;BME280;14169;43.684;10.484;2023-03-03T16:42:50;101366.63;;;16.09;78.45
26489;BME280;14169;43.684;10.484;2023-03-03T16:45:24;101369.03;;;15.75;79.57
26489;BME280;14169;43.684;10.484;2023-03-03T16:48:46;101374.50;;;15.50;81.05
26489;BME280;14169;43.684;10.484;2023-03-03T17:06:38;101402.91;;;14.53;87.71
26489;BME280;14169;43.684;10.484;2023-03-03T17:09:14;101401.41;;;14.46;88.33
26489;BME280;14169;43.684;10.484;2023-03-03T17:22:47;101424.88;;;14.01;89.33
26489;BME280;14169;43.684;10.484;2023-03-03T17:28:18;101428.66;;;13.92;90.58
26489;BME280;14169;43.684;10.484;2023-03-03T17:31:03;101425.38;;;13.86;91.57
26489;BME280;14169;43.684;10.484;2023-03-03T17:36:31;101446.53;;;13.80;92.15
26489;BME280;14169;43.684;10.484;2023-03-03T17:42:21;101443.91;;;13.80;93.17
26489;BME280;14169;43.684;10.484;2023-03-03T17:45:09;101451.09;;;13.75;92.44
26489;BME280;14169;43.684;10.484;2023-03-03T18:07:06;101465.97;;;13.46;94.76
26489;BME280;14169;43.684;10.484;2023-03-03T18:17:50;101482.13;;;13.33;92.83
26489;BME280;14169;43.684;10.484;2023-03-03T18:23:34;101485.63;;;13.32;94.02
26489;BME280;14169;43.684;10.484;2023-03-03T18:39:48;101503.63;;;13.13;96.03
26489;BME280;14169;43.684;10.484;2023-03-03T18:44:40;101506.53;;;13.04;97.69